sensor_id;sensor_type;location;lat;lon;timestamp;P1;durP1;ratioP1;P2;durP2;ratioP2
21517;SDS011;61765;45.794;24.150;2023-05-18T00:06:00;14.00;;;9.40;;
21517;SDS011;61765;45.794;24.150;2023-05-18T00:14:10;12.20;;;9.18;;
21517;SDS011;61765;45.794;24.150;2023-05-18T00:22:16;12.70;;;8.77;;
21517;SDS011;61765;45.794;24.150;2023-05-18T00:30:24;14.43;;;10.52;;
21517;SDS011;61765;45.794;24.150;2023-05-18T00:38:30;13.38;;;10.40;;
21517;SDS011;61765;45.794;24.150;2023-05-18T00:46:38;15.45;;;9.75;;
21517;SDS011;61765;45.794;24.150;2023-05-18T00:54:45;11.68;;;9.50;;
21517;SDS011;61765;45.794;24.150;2023-05-18T01:02:53;13.20;;;9.98;;
21517;SDS011;61765;45.794;24.150;2023-05-18T01:11:00;12.73;;;9.68;;
21517;SDS011;61765;45.794;24.150;2023-05-18T01:19:20;13.82;;;9.48;;
21517;SDS011;61765;45.794;24.150;2023-05-18T01:27:48;11.90;;;9.27;;
21517;SDS011;61765;45.794;24.150;2023-05-18T01:35:57;14.85;;;9.50;;
21517;SDS011;61765;45.794;24.150;2023-05-18T01:44:06;11.25;;;8.57;;
21517;SDS011;61765;45.794;24.150;2023-05-18T01:52:20;9.98;;;8.05;;
21517;SDS011;61765;45.794;24.150;2023-05-18T02:00:33;9.02;;;7.10;;
21517;SDS011;61765;45.794;24.150;2023-05-18T02:08:39;8.50;;;6.05;;
21517;SDS011;61765;45.794;24.150;2023-05-18T02:16:47;10.18;;;6.70;;
21517;SDS011;61765;45.794;24.150;2023-05-18T02:24:54;8.82;;;5.90;;
21517;SDS011;61765;45.794;24.150;2023-05-18T02:33:03;7.97;;;5.78;;
21517;SDS011;61765;45.794;24.150;2023-05-18T02:41:10;7.00;;;6.15;;
21517;SDS011;61765;45.794;24.150;2023-05-18T02:49:18;7.78;;;6.22;;
21517;SDS011;61765;45.794;24.150;2023-05-18T02:57:25;10.30;;;6.93;;
21517;SDS011;61765;45.794;24.150;2023-05-18T03:05:39;10.15;;;7.25;;
21517;SDS011;61765;45.794;24.150;2023-05-18T03:13:45;13.73;;;7.97;;
21517;SDS011;61765;45.794;24.150;2023-05-18T03:21:53;7.18;;;6.30;;
21517;SDS011;61765;45.794;24.150;2023-05-18T03:29:59;7.60;;;5.80;;
21517;SDS011;61765;45.794;24.150;2023-05-18T03:38:08;8.00;;;5.50;;
21517;SDS011;61765;45.794;24.150;2023-05-18T03:46:18;9.30;;;6.07;;
21517;SDS011;61765;45.794;24.150;2023-05-18T03:54:26;10.48;;;6.70;;
21517;SDS011;61765;45.794;24.150;2023-05-18T04:02:32;7.47;;;6.65;;
21517;SDS011;61765;45.794;24.150;2023-05-18T04:10:41;9.88;;;7.40;;
21517;SDS011;61765;45.794;24.150;2023-05-18T04:18:47;11.68;;;7.82;;
21517;SDS011;61765;45.794;24.150;2023-05-18T04:26:55;10.57;;;8.55;;
21517;SDS011;61765;45.794;24.150;2023-05-18T04:35:03;17.20;;;10.90;;
21517;SDS011;61765;45.794;24.150;2023-05-18T04:43:13;15.32;;;10.98;;
21517;SDS011;61765;45.794;24.150;2023-05-18T04:51:19;20.55;;;8.95;;
21517;SDS011;61765;45.794;24.150;2023-05-18T04:59:28;14.63;;;8.93;;
21517;SDS011;61765;45.794;24.150;2023-05-18T05:07:38;14.57;;;9.95;;
21517;SDS011;61765;45.794;24.150;2023-05-18T05:15:46;22.52;;;11.60;;
21517;SDS011;61765;45.794;24.150;2023-05-18T05:23:52;19.08;;;10.57;;
21517;SDS011;61765;45.794;24.150;2023-05-18T05:32:03;15.95;;;10.30;;
21517;SDS011;61765;45.794;24.150;2023-05-18T05:40:10;12.18;;;8.00;;
21517;SDS011;61765;45.794;24.150;2023-05-18T05:48:21;9.73;;;7.18;;
21517;SDS011;61765;45.794;24.150;2023-05-18T05:56:27;13.43;;;8.20;;
21517;SDS011;61765;45.794;24.150;2023-05-18T06:04:35;14.65;;;6.65;;
21517;SDS011;61765;45.794;24.150;2023-05-18T06:12:41;12.70;;;7.55;;
21517;SDS011;61765;45.794;24.150;2023-05-18T06:20:50;10.05;;;7.07;;
21517;SDS011;61765;45.794;24.150;2023-05-18T06:29:06;11.43;;;7.55;;
21517;SDS011;61765;45.794;24.150;2023-05-18T06:37:30;10.85;;;7.60;;
21517;SDS011;61765;45.794;24.150;2023-05-18T06:45:36;10.93;;;6.95;;
21517;SDS011;61765;45.794;24.150;2023-05-18T06:53:52;16.23;;;9.13;;
21517;SDS011;61765;45.794;24.150;2023-05-18T07:01:59;9.32;;;7.40;;
21517;SDS011;61765;45.794;24.150;2023-05-18T07:10:12;9.45;;;6.32;;
21517;SDS011;61765;45.794;24.150;2023-05-18T07:18:23;7.32;;;6.28;;
21517;SDS011;61765;45.794;24.150;2023-05-18T07:26:31;11.35;;;6.50;;
21517;SDS011;61765;45.794;24.150;2023-05-18T07:34:36;9.48;;;6.40;;
21517;SDS011;61765;45.794;24.150;2023-05-18T07:42:46;11.05;;;5.97;;
21517;SDS011;61765;45.794;24.150;2023-05-18T07:50:55;7.13;;;5.20;;
21517;SDS011;61765;45.794;24.150;2023-05-18T07:59:03;9.77;;;7.90;;
21517;SDS011;61765;45.794;24.150;2023-05-18T08:07:08;8.32;;;5.65;;
21517;SDS011;61765;45.794;24.150;2023-05-18T08:15:16;9.35;;;5.53;;
21517;SDS011;61765;45.794;24.150;2023-05-18T08:23:22;10.13;;;5.43;;
21517;SDS011;61765;45.794;24.150;2023-05-18T08:31:31;9.15;;;6.00;;
21517;SDS011;61765;45.794;24.150;2023-05-18T08:39:36;9.02;;;4.68;;
21517;SDS011;61765;45.794;24.150;2023-05-18T08:47:44;7.85;;;5.85;;
21517;SDS011;61765;45.794;24.150;2023-05-18T08:55:52;8.85;;;5.13;;
21517;SDS011;61765;45.794;24.150;2023-05-18T09:04:01;6.03;;;5.25;;
21517;SDS011;61765;45.794;24.150;2023-05-18T09:12:07;9.80;;;5.15;;
21517;SDS011;61765;45.794;24.150;2023-05-18T09:20:17;7.57;;;5.82;;
21517;SDS011;61765;45.794;24.150;2023-05-18T09:28:30;8.60;;;5.30;;
21517;SDS011;61765;45.794;24.150;2023-05-18T09:36:41;6.45;;;5.05;;
21517;SDS011;61765;45.794;24.150;2023-05-18T09:44:50;7.47;;;5.25;;
21517;SDS011;61765;45.794;24.150;2023-05-18T09:52:58;7.80;;;4.90;;
21517;SDS011;61765;45.794;24.150;2023-05-18T10:01:04;5.28;;;4.32;;
21517;SDS011;61765;45.794;24.150;2023-05-18T10:09:19;6.90;;;4.45;;
21517;SDS011;61765;45.794;24.150;2023-05-18T10:17:24;9.93;;;4.90;;
21517;SDS011;61765;45.794;24.150;2023-05-18T10:25:34;7.63;;;4.55;;
21517;SDS011;61765;45.794;24.150;2023-05-18T10:33:41;5.22;;;3.72;;
21517;SDS011;61765;45.794;24.150;2023-05-18T10:41:50;5.20;;;4.55;;
21517;SDS011;61765;45.794;24.150;2023-05-18T10:49:59;7.38;;;4.30;;
21517;SDS011;61765;45.794;24.150;2023-05-18T10:58:12;7.10;;;4.25;;
21517;SDS011;61765;45.794;24.150;2023-05-18T11:06:22;6.10;;;3.50;;
21517;SDS011;61765;45.794;24.150;2023-05-18T11:14:31;4.45;;;3.45;;
21517;SDS011;61765;45.794;24.150;2023-05-18T11:22:40;5.50;;;3.38;;
21517;SDS011;61765;45.794;24.150;2023-05-18T11:30:51;6.30;;;3.80;;
21517;SDS011;61765;45.794;24.150;2023-05-18T11:39:01;3.80;;;3.00;;
21517;SDS011;61765;45.794;24.150;2023-05-18T11:47:11;7.83;;;3.37;;
21517;SDS011;61765;45.794;24.150;2023-05-18T11:55:16;8.30;;;3.83;;
21517;SDS011;61765;45.794;24.150;2023-05-18T12:03:25;5.15;;;3.13;;
21517;SDS011;61765;45.794;24.150;2023-05-18T12:11:32;5.07;;;3.72;;
21517;SDS011;61765;45.794;24.150;2023-05-18T12:19:43;4.18;;;3.28;;
21517;SDS011;61765;45.794;24.150;2023-05-18T12:27:51;9.23;;;4.28;;
21517;SDS011;61765;45.794;24.150;2023-05-18T12:36:00;5.72;;;3.13;;
21517;SDS011;61765;45.794;24.150;2023-05-18T12:44:06;6.55;;;2.72;;
21517;SDS011;61765;45.794;24.150;2023-05-18T12:52:14;3.28;;;2.42;;
21517;SDS011;61765;45.794;24.150;2023-05-18T13:00:20;4.80;;;2.55;;
21517;SDS011;61765;45.794;24.150;2023-05-18T13:08:30;4.18;;;2.97;;
21517;SDS011;61765;45.794;24.150;2023-05-18T13:16:37;5.05;;;2.30;;
21517;SDS011;61765;45.794;24.150;2023-05-18T13:24:46;3.90;;;2.95;;
21517;SDS011;61765;45.794;24.150;2023-05-18T13:32:51;6.93;;;3.35;;
21517;SDS011;61765;45.794;24.150;2023-05-18T13:40:59;7.07;;;2.92;;
21517;SDS011;61765;45.794;24.150;2023-05-18T13:49:05;3.63;;;2.28;;
21517;SDS011;61765;45.794;24.150;2023-05-18T13:57:13;9.45;;;4.07;;
21517;SDS011;61765;45.794;24.150;2023-05-18T14:05:18;4.57;;;3.00;;
21517;SDS011;61765;45.794;24.150;2023-05-18T14:13:27;4.60;;;2.60;;
21517;SDS011;61765;45.794;24.150;2023-05-18T14:21:32;5.53;;;3.28;;
21517;SDS011;61765;45.794;24.150;2023-05-18T14:29:40;6.03;;;3.22;;
21517;SDS011;61765;45.794;24.150;2023-05-18T14:37:46;5.18;;;3.38;;
21517;SDS011;61765;45.794;24.150;2023-05-18T14:45:54;3.20;;;2.55;;
21517;SDS011;61765;45.794;24.150;2023-05-18T14:54:09;6.80;;;3.20;;
21517;SDS011;61765;45.794;24.150;2023-05-18T15:02:17;5.70;;;3.95;;
21517;SDS011;61765;45.794;24.150;2023-05-18T15:10:23;5.50;;;3.38;;
21517;SDS011;61765;45.794;24.150;2023-05-18T15:18:31;5.80;;;3.20;;
21517;SDS011;61765;45.794;24.150;2023-05-18T15:26:38;5.45;;;4.25;;
21517;SDS011;61765;45.794;24.150;2023-05-18T15:34:46;6.95;;;3.00;;
21517;SDS011;61765;45.794;24.150;2023-05-18T15:42:52;6.60;;;4.40;;
21517;SDS011;61765;45.794;24.150;2023-05-18T15:51:00;6.07;;;4.45;;
21517;SDS011;61765;45.794;24.150;2023-05-18T15:59:05;7.57;;;4.10;;
21517;SDS011;61765;45.794;24.150;2023-05-18T16:07:13;7.40;;;4.75;;
21517;SDS011;61765;45.794;24.150;2023-05-18T16:15:19;5.90;;;3.85;;
21517;SDS011;61765;45.794;24.150;2023-05-18T16:23:28;7.13;;;3.97;;
21517;SDS011;61765;45.794;24.150;2023-05-18T16:31:33;8.88;;;4.18;;
21517;SDS011;61765;45.794;24.150;2023-05-18T16:39:43;9.65;;;5.95;;
21517;SDS011;61765;45.794;24.150;2023-05-18T16:47:48;12.48;;;5.38;;
21517;SDS011;61765;45.794;24.150;2023-05-18T16:55:56;9.52;;;4.72;;
21517;SDS011;61765;45.794;24.150;2023-05-18T17:04:11;10.65;;;5.03;;
21517;SDS011;61765;45.794;24.150;2023-05-18T17:12:19;10.60;;;5.97;;
21517;SDS011;61765;45.794;24.150;2023-05-18T17:20:25;9.27;;;6.43;;
21517;SDS011;61765;45.794;24.150;2023-05-18T17:28:33;14.00;;;6.70;;
21517;SDS011;61765;45.794;24.150;2023-05-18T17:36:39;10.93;;;6.40;;
21517;SDS011;61765;45.794;24.150;2023-05-18T17:44:47;12.90;;;7.40;;
21517;SDS011;61765;45.794;24.150;2023-05-18T17:52:53;10.98;;;7.13;;
21517;SDS011;61765;45.794;24.150;2023-05-18T18:01:01;9.20;;;7.00;;
21517;SDS011;61765;45.794;24.150;2023-05-18T18:09:08;8.75;;;6.88;;
21517;SDS011;61765;45.794;24.150;2023-05-18T18:17:16;14.38;;;9.52;;
21517;SDS011;61765;45.794;24.150;2023-05-18T18:25:21;15.05;;;8.63;;
21517;SDS011;61765;45.794;24.150;2023-05-18T18:33:30;11.35;;;6.75;;
21517;SDS011;61765;45.794;24.150;2023-05-18T18:41:38;9.52;;;7.72;;
21517;SDS011;61765;45.794;24.150;2023-05-18T18:49:47;10.85;;;8.00;;
21517;SDS011;61765;45.794;24.150;2023-05-18T18:57:52;10.77;;;8.32;;
21517;SDS011;61765;45.794;24.150;2023-05-18T19:06:03;14.20;;;9.40;;
21517;SDS011;61765;45.794;24.150;2023-05-18T19:14:08;15.38;;;9.32;;
21517;SDS011;61765;45.794;24.150;2023-05-18T19:22:16;13.68;;;10.25;;
21517;SDS011;61765;45.794;24.150;2023-05-18T19:30:22;13.02;;;9.55;;
21517;SDS011;61765;45.794;24.150;2023-05-18T19:38:30;11.43;;;7.78;;
21517;SDS011;61765;45.794;24.150;2023-05-18T19:46:36;10.18;;;7.60;;
21517;SDS011;61765;45.794;24.150;2023-05-18T19:54:44;11.52;;;8.95;;
21517;SDS011;61765;45.794;24.150;2023-05-18T20:02:51;13.48;;;7.85;;
21517;SDS011;61765;45.794;24.150;2023-05-18T20:10:59;14.43;;;9.57;;
21517;SDS011;61765;45.794;24.150;2023-05-18T20:19:05;16.05;;;9.93;;
21517;SDS011;61765;45.794;24.150;2023-05-18T20:27:13;14.52;;;8.45;;
21517;SDS011;61765;45.794;24.150;2023-05-18T20:35:19;18.52;;;13.68;;
21517;SDS011;61765;45.794;24.150;2023-05-18T20:43:28;11.50;;;8.45;;
21517;SDS011;61765;45.794;24.150;2023-05-18T20:51:34;9.82;;;7.38;;
21517;SDS011;61765;45.794;24.150;2023-05-18T20:59:42;11.32;;;7.65;;
21517;SDS011;61765;45.794;24.150;2023-05-18T21:07:47;13.85;;;7.63;;
21517;SDS011;61765;45.794;24.150;2023-05-18T21:15:57;11.38;;;8.00;;
21517;SDS011;61765;45.794;24.150;2023-05-18T21:24:03;11.93;;;7.70;;
21517;SDS011;61765;45.794;24.150;2023-05-18T21:32:14;11.65;;;7.10;;
21517;SDS011;61765;45.794;24.150;2023-05-18T21:40:20;8.23;;;6.57;;
21517;SDS011;61765;45.794;24.150;2023-05-18T21:48:28;9.27;;;7.20;;
21517;SDS011;61765;45.794;24.150;2023-05-18T21:56:33;9.90;;;7.38;;
21517;SDS011;61765;45.794;24.150;2023-05-18T22:04:41;12.68;;;7.22;;
21517;SDS011;61765;45.794;24.150;2023-05-18T22:12:47;9.48;;;6.93;;
21517;SDS011;61765;45.794;24.150;2023-05-18T22:20:55;10.65;;;7.70;;
21517;SDS011;61765;45.794;24.150;2023-05-18T22:29:01;10.70;;;7.28;;
21517;SDS011;61765;45.794;24.150;2023-05-18T22:37:09;11.93;;;7.80;;
21517;SDS011;61765;45.794;24.150;2023-05-18T22:45:14;12.90;;;8.85;;
21517;SDS011;61765;45.794;24.150;2023-05-18T22:53:22;9.73;;;8.73;;
21517;SDS011;61765;45.794;24.150;2023-05-18T23:01:28;11.07;;;8.15;;
21517;SDS011;61765;45.794;24.150;2023-05-18T23:09:36;10.05;;;8.02;;
21517;SDS011;61765;45.794;24.150;2023-05-18T23:17:41;10.18;;;8.43;;
21517;SDS011;61765;45.794;24.150;2023-05-18T23:25:49;10.90;;;9.45;;
21517;SDS011;61765;45.794;24.150;2023-05-18T23:33:55;13.18;;;8.50;;
21517;SDS011;61765;45.794;24.150;2023-05-18T23:42:04;10.73;;;8.27;;
21517;SDS011;61765;45.794;24.150;2023-05-18T23:50:12;11.82;;;8.05;;
21517;SDS011;61765;45.794;24.150;2023-05-18T23:58:21;12.45;;;9.57;;
